Time;durP1;ratioP1;P1;durP2;ratioP2;P2;SDS_P1;SDS_P2;PMS_P1;PMS_P2;Temp;Humidity;BMP_temperature;BMP_pressure;BME280_temperature;BME280_humidity;BME280_pressure;Samples;Min_cycle;Max_cycle;Signal;HPM_P1;HPM_P2
2022/01/12 00:01:52;;;;;;;13.80;6.70;;;;;;;8.39;nan;102118.50;4833533;29;20463;-93
2022/01/12 00:04:40;;;;;;;6.23;3.00;;;;;;;8.51;nan;102140.97;4844305;29;20456;-93
2022/01/12 00:07:19;;;;;;;5.47;3.37;;;;;;;8.49;nan;102140.25;4829546;29;20486;-93
2022/01/12 00:09:50;;;;;;;6.73;3.93;;;;;;;8.44;nan;102135.28;4830023;29;20932;-92
2022/01/12 00:12:39;;;;;;;14.73;8.60;;;;;;;8.42;nan;102134.56;4830130;29;20449;-93
2022/01/12 00:15:07;;;;;;;11.30;6.93;;;;;;;8.35;nan;102129.84;4828398;29;20480;-93
2022/01/12 00:17:40;;;;;;;10.93;4.93;;;;;;;8.37;nan;102138.72;4814912;29;20468;-93
2022/01/12 00:20:29;;;;;;;6.23;3.83;;;;;;;8.23;nan;102121.78;4829891;29;20455;-93
2022/01/12 00:23:20;;;;;;;7.80;3.70;;;;;;;8.32;nan;102137.28;4829279;29;20468;-93
2022/01/12 00:34:23;;;;;;;9.47;5.57;;;;;;;8.20;nan;102132.97;4856698;29;20461;-92
2022/01/12 00:36:51;;;;;;;6.37;3.80;;;;;;;8.18;nan;102132.25;4828978;29;20441;-92
2022/01/12 00:39:22;;;;;;;12.10;5.37;;;;;;;8.09;nan;102119.47;4829085;29;20487;-92
2022/01/12 00:41:50;;;;;;;10.67;5.23;;;;;;;8.18;nan;102134.97;4843840;29;20455;-93
2022/01/12 00:44:32;;;;;;;15.93;3.20;;;;;;;8.14;nan;102125.38;4843581;29;20460;-92
2022/01/12 00:47:06;;;;;;;4.93;3.07;;;;;;;8.16;nan;102127.94;4830010;29;20811;-93
2022/01/12 00:49:41;;;;;;;4.90;3.40;;;;;;;8.17;nan;102144.16;4829176;29;20441;-93
2022/01/12 00:52:32;;;;;;;9.40;4.97;;;;;;;8.15;nan;102146.16;4828675;29;20457;-92
2022/01/12 00:55:00;;;;;;;13.83;7.50;;;;;;;8.09;nan;102135.81;4828736;29;20457;-94
2022/01/12 00:57:34;;;;;;;13.80;7.90;;;;;;;7.95;nan;102119.94;4829497;29;20457;-93
2022/01/12 01:00:11;;;;;;;11.67;6.40;;;;;;;7.97;nan;102128.81;4861092;29;20488;-92
2022/01/12 01:02:43;;;;;;;11.00;4.73;;;;;;;8.01;nan;102135.69;4847382;29;20970;-93
2022/01/12 01:05:22;;;;;;;4.60;3.27;;;;;;;7.92;nan;102128.38;4847046;29;20448;-92
2022/01/12 01:07:58;;;;;;;4.27;2.43;;;;;;;7.93;nan;102141.84;4847617;29;20444;-93
2022/01/12 01:13:07;;;;;;;5.30;2.93;;;;;;;7.93;nan;102146.44;4843452;29;20463;-93
2022/01/12 01:15:54;;;;;;;10.23;5.17;;;;;;;7.89;nan;102142.25;4828354;29;20836;-92
2022/01/12 01:27:06;;;;;;;11.37;7.13;;;;;;;7.81;nan;102128.53;4830710;29;20471;-92
2022/01/12 01:29:36;;;;;;;12.53;7.10;;;;;;;7.79;nan;102133.25;4828559;29;20449;-93
2022/01/12 01:32:09;;;;;;;11.13;5.60;;;;;;;7.78;nan;102126.94;4853257;29;20464;-92
2022/01/12 01:34:43;;;;;;;13.40;6.07;;;;;;;7.76;nan;102128.09;4846893;29;20444;-93
2022/01/12 01:37:21;;;;;;;15.03;5.70;;;;;;;7.77;nan;102143.41;4847039;29;20439;-93
2022/01/12 01:40:12;;;;;;;13.43;6.33;;;;;;;7.76;nan;102139.81;4845549;29;20487;-92
2022/01/12 01:43:25;;;;;;;16.47;7.27;;;;;;;7.76;nan;102136.25;4846223;29;20464;-94
2022/01/12 01:54:28;;;;;;;18.30;8.27;;;;;;;7.71;nan;102130.34;4860641;29;20468;-93
2022/01/12 01:57:02;;;;;;;14.30;5.50;;;;;;;7.67;nan;102129.81;4846270;29;20821;-92
2022/01/12 01:59:31;;;;;;;6.33;3.73;;;;;;;7.57;nan;102140.66;4861523;29;20547;-92
2022/01/12 02:02:03;;;;;;;8.03;3.87;;;;;;;7.54;nan;102150.94;4846004;29;20445;-92
2022/01/12 02:04:45;;;;;;;3.80;2.30;;;;;;;7.46;nan;102143.50;4846422;29;20872;-93
2022/01/12 02:11:11;;;;;;;7.27;3.20;;;;;;;7.44;nan;102139.19;4843430;29;20953;-93
2022/01/12 02:14:11;;;;;;;4.97;2.93;;;;;;;7.42;nan;102142.06;4842776;29;20452;-93
2022/01/12 02:16:51;;;;;;;5.30;2.40;;;;;;;7.38;nan;102146.03;4842370;29;20473;-93
2022/01/12 02:35:55;;;;;;;4.90;2.90;;;;;;;7.26;nan;102148.03;4841755;29;20543;-94
2022/01/12 02:41:19;;;;;;;8.17;3.80;;;;;;;7.31;nan;102155.78;4829060;29;20505;-93
2022/01/12 02:55:49;;;;;;;14.43;7.07;;;;;;;7.32;nan;102152.03;4816106;29;20456;-93
2022/01/12 02:58:23;;;;;;;18.70;8.70;;;;;;;7.29;nan;102152.34;4826710;29;20429;-93
2022/01/12 03:01:15;;;;;;;9.80;5.63;;;;;;;7.30;nan;102153.19;4802652;29;20466;-93
2022/01/12 03:03:46;;;;;;;7.23;4.10;;;;;;;7.25;nan;102150.88;4820691;29;20454;-92
2022/01/12 03:06:35;;;;;;;8.73;5.20;;;;;;;7.27;nan;102151.59;4836085;29;20821;-93
2022/01/12 03:09:43;;;;;;;14.80;6.10;;;;;;;7.27;nan;102147.03;4864147;29;20458;-92
2022/01/12 03:12:24;;;;;;;11.90;5.23;;;;;;;7.23;nan;102147.44;4864163;29;20443;-93
2022/01/12 03:14:52;;;;;;;13.27;6.37;;;;;;;7.20;nan;102147.69;4850672;29;20475;-94
2022/01/12 03:17:28;;;;;;;15.03;6.80;;;;;;;7.10;nan;102127.78;4866741;29;20458;-94
2022/01/12 03:20:08;;;;;;;16.80;6.47;;;;;;;7.21;nan;102146.72;4867066;29;20526;-93
2022/01/12 03:22:37;;;;;;;8.57;3.93;;;;;;;7.12;nan;102136.69;4836777;29;20933;-93
2022/01/12 03:25:05;;;;;;;5.43;3.20;;;;;;;7.01;nan;102143.06;4837272;29;20470;-93
2022/01/12 03:28:02;;;;;;;6.40;3.50;;;;;;;6.93;nan;102138.28;4851926;29;20458;-93
2022/01/12 03:30:48;;;;;;;4.03;2.60;;;;;;;6.91;nan;102142.16;4852218;29;20448;-93
2022/01/12 03:33:39;;;;;;;4.70;3.10;;;;;;;6.97;nan;102138.00;4853214;29;20459;-93
2022/01/12 03:39:18;;;;;;;5.10;2.73;;;;;;;6.95;nan;102138.16;4850120;29;20486;-92
2022/01/12 03:42:01;;;;;;;5.77;2.73;;;;;;;6.91;nan;102136.72;4832865;29;20463;-93
2022/01/12 03:44:59;;;;;;;8.93;3.93;;;;;;;6.93;nan;102145.56;4848494;29;20943;-94
2022/01/12 03:48:04;;;;;;;10.50;4.40;;;;;;;6.96;nan;102133.56;4848614;29;20436;-93
2022/01/12 03:50:34;;;;;;;7.83;4.10;;;;;;;6.97;nan;102143.44;4848474;29;20451;-92
2022/01/12 03:53:09;;;;;;;7.20;4.90;;;;;;;6.92;nan;102133.88;4848279;29;20471;-93
2022/01/12 03:55:38;;;;;;;9.70;5.50;;;;;;;6.92;nan;102133.00;4832845;29;20459;-93
2022/01/12 03:58:43;;;;;;;10.83;3.77;;;;;;;6.95;nan;102146.31;4833057;29;20801;-93
2022/01/12 04:01:12;;;;;;;5.53;3.80;;;;;;;6.93;nan;102143.72;4843152;29;21011;-92
2022/01/12 04:04:23;;;;;;;9.87;4.33;;;;;;;6.99;nan;102144.19;4848080;29;20455;-92
2022/01/12 04:10:13;;;;;;;3.70;2.50;;;;;;;6.75;nan;102122.75;4850110;29;20524;-92
2022/01/12 04:12:44;;;;;;;3.37;2.17;;;;;;;6.89;nan;102145.00;4832939;29;20462;-92
2022/01/12 04:15:12;;;;;;;3.87;2.33;;;;;;;6.84;nan;102139.13;4844305;29;20476;-92
2022/01/12 04:17:40;;;;;;;4.00;2.67;;;;;;;6.86;nan;102145.28;4843983;29;20463;-93
2022/01/12 04:20:15;;;;;;;4.40;2.87;;;;;;;6.86;nan;102145.28;4829059;29;20894;-92
2022/01/12 04:25:57;;;;;;;9.90;2.47;;;;;;;6.78;nan;102141.50;4857219;29;20457;-93
2022/01/12 04:28:27;;;;;;;4.20;2.30;;;;;;;6.66;nan;102127.16;4847346;29;20833;-92
2022/01/12 04:31:26;;;;;;;2.50;1.93;;;;;;;6.75;nan;102145.34;4862610;29;20452;-93
2022/01/12 04:34:06;;;;;;;6.77;2.30;;;;;;;6.68;nan;102140.59;4847042;29;20460;-92
2022/01/12 04:36:34;;;;;;;6.83;2.10;;;;;;;6.66;nan;102143.44;4862561;29;20463;-93
2022/01/12 04:39:12;;;;;;;4.70;3.40;;;;;;;6.66;nan;102138.00;4847883;29;20483;-93
2022/01/12 04:41:58;;;;;;;6.33;3.70;;;;;;;6.74;nan;102143.63;4832762;29;20451;-93
2022/01/12 04:44:35;;;;;;;7.03;3.97;;;;;;;6.67;nan;102139.75;4847545;29;20531;-93
2022/01/12 04:47:45;;;;;;;3.03;2.33;;;;;;;6.75;nan;102139.03;4847413;29;20467;-92
2022/01/12 04:50:51;;;;;;;4.80;3.33;;;;;;;6.77;nan;102135.19;4849455;29;20452;-93
2022/01/12 04:53:50;;;;;;;5.00;3.23;;;;;;;6.76;nan;102143.47;4863483;29;20811;-93
2022/01/12 04:56:33;;;;;;;5.97;3.50;;;;;;;6.68;nan;102141.47;4846683;29;20455;-92
2022/01/12 04:59:02;;;;;;;4.60;2.47;;;;;;;6.61;nan;102137.53;4861882;29;20463;-93
2022/01/12 05:01:52;;;;;;;4.10;2.30;;;;;;;6.52;nan;102135.66;4846966;29;20466;-94
2022/01/12 05:07:30;;;;;;;3.10;1.90;;;;;;;6.58;nan;102144.09;4862117;29;20468;-93
2022/01/12 05:14:05;;;;;;;4.13;2.07;;;;;;;6.49;nan;102144.91;4862999;29;20479;-92
2022/01/12 05:16:32;;;;;;;4.10;2.50;;;;;;;6.43;nan;102145.44;4846396;29;20987;-94
2022/01/12 05:19:04;;;;;;;3.57;2.10;;;;;;;6.50;nan;102138.50;4831630;29;20468;-93
2022/01/12 05:21:37;;;;;;;3.17;1.90;;;;;;;6.52;nan;102146.50;4862034;29;20868;-92
2022/01/12 05:24:10;;;;;;;5.57;3.10;;;;;;;6.52;nan;102132.94;4861034;29;20473;-92
2022/01/12 05:26:40;;;;;;;5.00;2.97;;;;;;;6.41;nan;102122.13;4846262;29;20467;-92
2022/01/12 05:29:10;;;;;;;6.03;3.47;;;;;;;6.51;nan;102139.34;4831179;29;20463;-92
2022/01/12 05:31:44;;;;;;;3.90;2.50;;;;;;;6.41;nan;102127.56;4832087;29;20466;-92
2022/01/12 05:34:13;;;;;;;3.20;2.40;;;;;;;6.54;nan;102155.41;4835798;29;20951;-93
2022/01/12 05:36:41;;;;;;;4.17;2.07;;;;;;;6.41;nan;102128.41;4812916;29;20487;-93
2022/01/12 05:39:10;;;;;;;6.03;2.50;;;;;;;6.48;nan;102145.06;4819256;29;20458;-93
2022/01/12 05:41:43;;;;;;;3.57;2.33;;;;;;;6.44;nan;102130.00;4828214;29;20465;-92
2022/01/12 05:44:14;;;;;;;15.40;7.73;;;;;;;6.41;nan;102124.84;4834340;29;20954;-93
2022/01/12 05:46:43;;;;;;;7.50;4.43;;;;;;;6.39;nan;102130.41;4845396;29;20496;-93
2022/01/12 05:52:13;;;;;;;6.47;3.37;;;;;;;6.42;nan;102134.72;4848675;29;20447;-92
2022/01/12 05:55:02;;;;;;;9.77;2.90;;;;;;;6.45;nan;102139.88;4857783;29;20461;-92
2022/01/12 05:57:40;;;;;;;5.53;2.73;;;;;;;6.36;nan;102136.09;4842635;29;20452;-92
2022/01/12 06:00:12;;;;;;;6.90;2.80;;;;;;;6.32;nan;102131.94;4828024;29;20472;-92
2022/01/12 06:02:47;;;;;;;5.53;3.07;;;;;;;6.39;nan;102140.41;4827927;29;20472;-92
2022/01/12 06:05:19;;;;;;;5.90;2.80;;;;;;;6.34;nan;102137.25;4843110;29;20468;-92
2022/01/12 06:07:51;;;;;;;3.80;2.70;;;;;;;6.34;nan;102148.09;4827883;29;20468;-93
2022/01/12 06:10:23;;;;;;;11.10;2.70;;;;;;;6.24;nan;102127.16;4842856;29;20455;-92
2022/01/12 06:12:58;;;;;;;7.30;2.30;;;;;;;6.30;nan;102146.63;4842927;29;20455;-92
2022/01/12 06:15:26;;;;;;;3.00;1.80;;;;;;;6.22;nan;102140.00;4841823;29;20975;-93
2022/01/12 06:18:01;;;;;;;3.57;1.97;;;;;;;6.21;nan;102148.28;4758442;30;20466;-93
2022/01/12 06:21:03;;;;;;;5.10;2.00;;;;;;;6.33;nan;102146.38;4743989;30;20553;-93
2022/01/12 06:23:41;;;;;;;5.37;3.30;;;;;;;6.35;nan;102145.22;4772432;30;20467;-93
2022/01/12 06:26:11;;;;;;;4.20;2.40;;;;;;;6.32;nan;102150.94;4772648;30;20474;-92
2022/01/12 06:28:53;;;;;;;3.73;2.10;;;;;;;6.27;nan;102152.31;4758058;30;20534;-92
2022/01/12 06:31:26;;;;;;;4.10;2.07;;;;;;;6.29;nan;102162.06;4761184;30;20448;-92
2022/01/12 06:34:03;;;;;;;4.03;2.40;;;;;;;6.27;nan;102160.47;4724023;30;20471;-94
2022/01/12 06:36:32;;;;;;;7.37;1.77;;;;;;;6.17;nan;102163.94;4751686;30;20463;-93
2022/01/12 06:39:02;;;;;;;2.43;1.60;;;;;;;6.14;nan;102163.38;4737375;30;20496;-92
2022/01/12 06:41:30;;;;;;;5.30;2.67;;;;;;;6.09;nan;102138.47;4729519;29;20578;-93
2022/01/12 06:43:58;;;;;;;8.43;4.50;;;;;;;6.17;nan;102163.09;4822837;29;20462;-92
2022/01/12 06:46:29;;;;;;;7.20;3.73;;;;;;;6.16;nan;102161.38;4779178;29;20460;-92
2022/01/12 06:49:12;;;;;;;6.83;3.80;;;;;;;6.22;nan;102171.72;4780419;29;21082;-93
2022/01/12 06:51:41;;;;;;;4.50;2.97;;;;;;;6.21;nan;102170.84;4806781;29;20456;-93
2022/01/12 06:54:09;;;;;;;5.40;3.00;;;;;;;6.18;nan;102171.09;4815742;29;20463;-92
2022/01/12 06:56:51;;;;;;;6.70;2.70;;;;;;;6.16;nan;102178.50;4830973;29;20462;-93
2022/01/12 06:59:34;;;;;;;4.20;2.77;;;;;;;6.24;nan;102186.03;4815707;29;20473;-92
2022/01/12 07:02:08;;;;;;;4.13;2.50;;;;;;;6.19;nan;102180.13;4830438;29;20459;-92
2022/01/12 07:04:36;;;;;;;4.67;2.87;;;;;;;6.09;nan;102171.91;4815502;29;20463;-93
2022/01/12 07:07:14;;;;;;;5.60;2.70;;;;;;;6.11;nan;102185.34;4815601;29;20463;-94
2022/01/12 07:10:02;;;;;;;3.40;2.30;;;;;;;6.03;nan;102190.53;4830273;29;20467;-91
2022/01/12 07:12:30;;;;;;;3.50;2.03;;;;;;;5.94;nan;102181.34;4830610;29;20460;-93
2022/01/12 07:15:14;;;;;;;6.07;2.47;;;;;;;5.97;nan;102194.63;4815493;29;20459;-92
2022/01/12 07:17:42;;;;;;;5.07;2.30;;;;;;;5.96;nan;102184.78;4842848;29;20492;-93
2022/01/12 07:20:44;;;;;;;4.43;2.30;;;;;;;5.98;nan;102188.22;4812136;29;20504;-92
2022/01/12 07:23:12;;;;;;;6.00;2.47;;;;;;;5.89;nan;102187.16;4827056;29;20941;-93
2022/01/12 07:25:40;;;;;;;3.27;2.07;;;;;;;5.85;nan;102182.94;4802122;29;20468;-91
2022/01/12 07:28:10;;;;;;;9.53;2.23;;;;;;;5.91;nan;102199.72;4845295;29;20459;-92
2022/01/12 07:30:40;;;;;;;2.90;1.67;;;;;;;5.85;nan;102195.63;4830083;29;20935;-93
2022/01/12 07:33:11;;;;;;;2.70;1.60;;;;;;;5.77;nan;102181.84;4829007;29;20470;-93
2022/01/12 07:39:38;;;;;;;6.33;1.90;;;;;;;5.89;nan;102197.13;4827855;29;20499;-92
2022/01/12 07:42:48;;;;;;;4.10;2.10;;;;;;;5.92;nan;102196.88;4826945;29;20948;-93
2022/01/12 07:45:24;;;;;;;2.87;1.93;;;;;;;5.86;nan;102195.50;4826272;29;20966;-93
2022/01/12 07:48:32;;;;;;;2.13;1.60;;;;;;;5.82;nan;102213.00;4811929;29;20828;-93
2022/01/12 07:51:25;;;;;;;3.83;1.70;;;;;;;5.75;nan;102210.97;4843493;29;20466;-94
2022/01/12 07:54:01;;;;;;;2.13;1.80;;;;;;;5.74;nan;102193.81;4793134;29;20809;-92
2022/01/12 07:56:29;;;;;;;7.83;2.10;;;;;;;5.82;nan;102206.72;4793035;29;20446;-93
2022/01/12 07:59:02;;;;;;;12.53;2.70;;;;;;;5.86;nan;102208.22;4791751;29;20977;-92
2022/01/12 08:02:06;;;;;;;6.10;3.00;;;;;;;5.92;nan;102206.88;4773884;30;20490;-94
2022/01/12 08:05:09;;;;;;;8.23;3.57;;;;;;;5.93;nan;102203.19;4774827;30;20468;-94
2022/01/12 08:07:54;;;;;;;3.60;2.73;;;;;;;5.95;nan;102207.50;4762498;29;20472;-95
2022/01/12 08:14:28;;;;;;;17.70;3.30;;;;;;;5.89;nan;102192.56;4827700;29;20455;-93
2022/01/12 08:17:00;;;;;;;11.50;2.93;;;;;;;5.90;nan;102193.44;4847566;29;20491;-93
2022/01/12 08:19:44;;;;;;;9.77;2.83;;;;;;;5.96;nan;102197.50;4844705;29;20904;-92
2022/01/12 09:19:51;;;;;;;13.47;6.37;;;;;;;7.76;nan;102243.25;4847974;29;20463;-88
2022/01/12 09:22:19;;;;;;;14.80;6.20;;;;;;;7.88;nan;102246.72;4830687;29;20459;-89
2022/01/12 09:24:49;;;;;;;10.93;6.80;;;;;;;7.97;nan;102240.44;4839887;29;20459;-88
2022/01/12 09:27:17;;;;;;;10.43;5.60;;;;;;;8.10;nan;102245.59;4849090;29;20455;-87
2022/01/12 09:29:46;;;;;;;11.53;5.80;;;;;;;8.24;nan;102254.25;4848107;29;20463;-89
2022/01/12 09:32:52;;;;;;;9.37;5.87;;;;;;;8.41;nan;102263.59;4844718;29;20460;-92
2022/01/12 09:35:23;;;;;;;8.10;4.90;;;;;;;8.57;nan;102265.75;4876539;29;20914;-89
2022/01/12 09:37:54;;;;;;;12.47;6.87;;;;;;;8.74;nan;102265.03;4879179;29;20451;-85
2022/01/12 09:40:23;;;;;;;20.07;8.53;;;;;;;8.88;nan;102266.44;4833241;29;20483;-84
2022/01/12 09:42:51;;;;;;;9.50;5.77;;;;;;;9.15;nan;102265.69;4862715;29;20541;-91
2022/01/12 09:45:19;;;;;;;14.37;6.23;;;;;;;9.44;nan;102279.22;4846480;29;20459;-84
2022/01/12 09:47:49;;;;;;;13.43;5.43;;;;;;;9.77;nan;102280.56;4862464;29;20454;-86
2022/01/12 09:50:20;;;;;;;16.20;6.33;;;;;;;10.12;nan;102271.59;4842214;29;20484;-87
2022/01/12 09:53:41;;;;;;;7.40;5.13;;;;;;;10.55;nan;102265.41;4849726;29;20963;-95
2022/01/12 10:07:45;;;;;;;6.20;2.53;;;;;;;11.76;nan;102271.75;4918675;29;20492;-94
2022/01/12 10:10:17;;;;;;;3.10;2.23;;;;;;;11.93;nan;102282.81;4867205;29;20454;-95
2022/01/12 10:20:33;;;;;;;4.93;2.10;;;;;;;12.34;nan;102286.53;4899708;29;20555;-96
2022/01/12 10:23:13;;;;;;;3.37;2.20;;;;;;;12.41;nan;102287.59;4873393;29;20461;-95
2022/01/12 10:25:48;;;;;;;6.57;2.40;;;;;;;12.46;nan;102271.50;4861819;29;20465;-95
2022/01/12 10:28:27;;;;;;;8.57;2.90;;;;;;;12.62;nan;102292.59;4886315;29;20466;-95
2022/01/12 10:31:07;;;;;;;9.23;3.33;;;;;;;12.77;nan;102294.50;4867853;29;20473;-95
2022/01/12 10:33:44;;;;;;;5.43;2.70;;;;;;;12.88;nan;102282.34;4878321;29;20450;-95
2022/01/12 10:36:17;;;;;;;7.30;2.73;;;;;;;13.01;nan;102290.91;4890269;29;20457;-91
2022/01/12 10:38:44;;;;;;;9.13;3.57;;;;;;;13.04;nan;102285.06;4900538;29;20460;-94
2022/01/12 10:41:15;;;;;;;6.40;2.93;;;;;;;13.11;nan;102280.59;4876184;29;20840;-95
2022/01/12 10:43:49;;;;;;;9.90;2.10;;;;;;;13.27;nan;102284.41;4875759;29;20800;-96
2022/01/12 10:46:18;;;;;;;11.17;2.63;;;;;;;13.38;nan;102281.28;4862546;29;20468;-95
2022/01/12 10:49:00;;;;;;;6.70;2.50;;;;;;;13.51;nan;102283.47;4869020;29;20462;-95
2022/01/12 10:51:43;;;;;;;4.90;2.83;;;;;;;13.69;nan;102311.59;4897291;29;20476;-96
2022/01/12 10:54:18;;;;;;;6.53;2.30;;;;;;;13.75;nan;102306.25;4880359;29;20956;-95
2022/01/12 11:00:36;;;;;;;3.07;2.17;;;;;;;13.98;nan;102305.50;4907801;29;20875;-96
2022/01/12 11:03:07;;;;;;;4.80;1.70;;;;;;;13.96;nan;102283.69;4870321;29;20491;-92
2022/01/12 11:05:36;;;;;;;6.57;2.67;;;;;;;14.08;nan;102278.63;4849288;29;20459;-93
2022/01/12 11:08:05;;;;;;;17.33;8.10;;;;;;;14.24;nan;102277.72;4875141;29;20946;-93
2022/01/12 11:10:32;;;;;;;11.40;5.33;;;;;;;14.32;nan;102281.25;4871011;29;20926;-93
2022/01/12 11:13:00;;;;;;;12.23;5.57;;;;;;;14.47;nan;102284.13;4869988;29;20467;-91
2022/01/12 11:15:33;;;;;;;7.63;4.07;;;;;;;14.54;nan;102270.50;4877241;29;20462;-91
2022/01/12 11:18:03;;;;;;;7.10;4.30;;;;;;;14.65;nan;102281.94;4882262;29;20473;-90
2022/01/12 11:20:32;;;;;;;11.70;4.50;;;;;;;14.77;nan;102279.63;4862348;29;20474;-91
2022/01/12 11:23:03;;;;;;;5.80;2.53;;;;;;;14.85;nan;102266.63;4877916;29;20917;-91
2022/01/12 11:25:36;;;;;;;3.50;1.90;;;;;;;14.99;nan;102270.50;4882293;29;20437;-91
2022/01/12 11:28:22;;;;;;;23.77;2.40;;;;;;;15.08;nan;102268.50;4875724;29;20455;-91
2022/01/12 11:30:55;;;;;;;4.47;1.90;;;;;;;15.20;nan;102254.09;4899206;29;20450;-92
2022/01/12 11:33:34;;;;;;;5.03;2.10;;;;;;;15.35;nan;102262.41;4891825;29;20466;-91
2022/01/12 11:36:27;;;;;;;10.77;2.40;;;;;;;15.42;nan;102256.97;4875212;29;20447;-92
2022/01/12 11:39:22;;;;;;;4.30;1.63;;;;;;;15.48;nan;102257.09;4893168;29;20462;-90
2022/01/12 11:41:52;;;;;;;9.63;2.30;;;;;;;15.43;nan;102237.50;4892223;29;20494;-94
2022/01/12 11:44:24;;;;;;;15.17;2.03;;;;;;;15.63;nan;102248.84;4878972;29;20470;-90
2022/01/12 11:46:54;;;;;;;2.87;1.60;;;;;;;15.58;nan;102243.06;4871463;29;20458;-91
2022/01/12 11:53:30;;;;;;;4.87;2.33;;;;;;;15.75;nan;102230.81;4892113;29;20434;-91
2022/01/12 11:56:26;;;;;;;10.40;2.47;;;;;;;15.92;nan;102245.22;4880900;29;20455;-94
2022/01/12 11:59:16;;;;;;;3.57;1.77;;;;;;;16.02;nan;102247.66;4883331;29;20463;-92
2022/01/12 12:02:06;;;;;;;8.37;2.43;;;;;;;16.06;nan;102232.44;4881249;29;20520;-93
2022/01/12 12:09:25;;;;;;;10.80;1.90;;;;;;;16.41;nan;102242.63;4887607;29;20834;-92
2022/01/12 12:11:55;;;;;;;6.83;1.70;;;;;;;16.46;nan;102220.81;4899366;29;20492;-92
2022/01/12 12:14:27;;;;;;;2.50;1.00;;;;;;;16.56;nan;102229.63;4864951;29;20455;-93
2022/01/12 12:16:57;;;;;;;3.63;1.80;;;;;;;16.51;nan;102215.56;4882470;29;20467;-93
2022/01/12 12:19:42;;;;;;;7.10;1.73;;;;;;;16.66;nan;102217.44;4873874;29;20454;-95
2022/01/12 13:08:21;;;;;;;5.33;2.00;;;;;;;17.82;nan;102148.50;4902967;29;20409;-94
2022/01/12 13:41:17;;;;;;;6.83;1.00;;;;;;;18.52;nan;102108.38;4904238;29;20481;-92
2022/01/12 13:44:01;;;;;;;2.60;0.83;;;;;;;18.59;nan;102114.81;4885551;29;20457;-92
2022/01/12 13:47:03;;;;;;;11.73;1.40;;;;;;;18.56;nan;102112.44;4883160;29;20450;-92
2022/01/12 14:01:36;;;;;;;4.97;1.57;;;;;;;18.75;nan;102108.00;4918571;29;20479;-94
2022/01/12 14:04:14;;;;;;;3.43;1.40;;;;;;;18.69;nan;102094.13;4902198;29;20495;-94
2022/01/12 14:06:46;;;;;;;5.03;2.00;;;;;;;18.73;nan;102098.19;4857660;29;20453;-92
2022/01/12 14:09:43;;;;;;;2.80;1.00;;;;;;;18.86;nan;102104.56;4857781;29;20465;-94
2022/01/12 14:16:27;;;;;;;4.30;0.80;;;;;;;18.85;nan;102071.56;4899239;29;20405;-93
2022/01/12 14:19:15;;;;;;;5.20;1.67;;;;;;;18.93;nan;102090.69;4867816;29;20458;-93
2022/01/12 14:29:56;;;;;;;4.80;0.93;;;;;;;19.09;nan;102084.69;4899092;29;20492;-93
2022/01/12 14:32:26;;;;;;;11.57;1.00;;;;;;;19.08;nan;102098.75;4882844;29;20469;-91
2022/01/12 14:35:11;;;;;;;2.67;1.33;;;;;;;19.02;nan;102083.88;4853715;29;20525;-92
2022/01/12 14:41:22;;;;;;;3.00;1.10;;;;;;;19.12;nan;102091.72;4902692;29;20846;-92
2022/01/12 14:44:07;;;;;;;3.77;1.50;;;;;;;19.11;nan;102092.78;4868857;29;20454;-93
2022/01/12 14:46:52;;;;;;;1.97;1.20;;;;;;;19.04;nan;102081.75;4909940;29;20449;-93
2022/01/12 14:49:20;;;;;;;7.00;1.30;;;;;;;19.07;nan;102097.06;4891185;29;20468;-93
2022/01/12 14:52:07;;;;;;;3.53;1.20;;;;;;;19.05;nan;102105.59;4887871;29;20960;-93
2022/01/12 14:55:21;;;;;;;6.73;2.37;;;;;;;18.97;nan;102097.53;4879533;29;20880;-91
2022/01/12 15:01:33;;;;;;;2.80;1.20;;;;;;;18.90;nan;102093.91;4903622;29;21043;-92
2022/01/12 15:04:03;;;;;;;5.20;1.17;;;;;;;18.69;nan;102083.06;4900757;29;20812;-91
2022/01/12 15:06:37;;;;;;;4.83;1.30;;;;;;;18.73;nan;102092.66;4857194;29;20980;-90
2022/01/12 15:09:10;;;;;;;7.10;1.53;;;;;;;18.72;nan;102094.56;4896306;29;20822;-90
2022/01/12 15:11:42;;;;;;;11.03;1.83;;;;;;;18.58;nan;102077.09;4882213;29;20462;-91
2022/01/12 15:14:46;;;;;;;5.80;1.53;;;;;;;18.58;nan;102088.16;4884558;29;20469;-91
2022/01/12 15:17:20;;;;;;;6.27;1.37;;;;;;;18.58;nan;102092.84;4884840;29;20461;-90
2022/01/12 15:20:04;;;;;;;17.33;2.17;;;;;;;18.50;nan;102099.44;4895058;29;20458;-91
2022/01/12 15:22:34;;;;;;;6.10;1.70;;;;;;;18.39;nan;102083.47;4863140;29;20552;-92
2022/01/12 15:25:05;;;;;;;7.80;1.40;;;;;;;18.43;nan;102090.31;4884335;29;20458;-92
2022/01/12 15:27:43;;;;;;;9.47;1.60;;;;;;;18.35;nan;102087.72;4885480;29;20458;-90
2022/01/12 15:30:14;;;;;;;19.40;3.60;;;;;;;18.33;nan;102091.78;4869478;29;20454;-91
2022/01/12 15:32:41;;;;;;;12.87;1.50;;;;;;;18.38;nan;102101.16;4869817;29;20450;-91
2022/01/12 15:35:18;;;;;;;17.40;2.33;;;;;;;18.21;nan;102086.88;4854643;29;20522;-92
2022/01/12 15:37:47;;;;;;;13.37;2.93;;;;;;;18.11;nan;102088.34;4870302;29;20813;-91
2022/01/12 15:40:15;;;;;;;11.60;1.40;;;;;;;18.02;nan;102081.31;4854395;29;20443;-91
2022/01/12 15:42:46;;;;;;;7.27;1.57;;;;;;;17.98;nan;102080.03;4854268;29;20482;-91
2022/01/12 15:45:20;;;;;;;7.43;1.67;;;;;;;18.05;nan;102103.03;4878954;29;20462;-91
2022/01/12 15:48:15;;;;;;;6.20;1.30;;;;;;;17.85;nan;102087.25;4884885;29;20543;-90
2022/01/12 15:50:47;;;;;;;5.00;1.50;;;;;;;17.80;nan;102084.25;4876682;29;20588;-91
2022/01/12 15:53:15;;;;;;;6.60;1.13;;;;;;;17.77;nan;102081.91;4870362;29;20820;-92
2022/01/12 15:55:51;;;;;;;8.93;1.50;;;;;;;17.71;nan;102074.41;4854376;29;20471;-91
2022/01/12 16:14:33;;;;;;;9.40;1.60;;;;;;;17.58;nan;102090.94;4908279;29;20519;-90
2022/01/12 16:17:45;;;;;;;7.60;1.60;;;;;;;17.46;nan;102099.00;4862338;29;20476;-92
2022/01/12 16:55:49;;;;;;;4.20;1.60;;;;;;;16.30;nan;102123.66;4861400;29;20494;-93
2022/01/12 17:02:43;;;;;;;6.33;1.10;;;;;;;15.82;nan;102120.59;4782457;30;20552;-91
2022/01/12 17:12:44;;;;;;;7.00;1.53;;;;;;;15.18;nan;102113.00;4780823;30;20443;-88
2022/01/12 17:35:30;;;;;;;14.70;7.97;;;;;;;14.56;nan;102150.13;4861905;29;20428;-90
2022/01/12 17:42:01;;;;;;;11.67;3.87;;;;;;;14.31;nan;102139.28;4871985;29;20463;-94
2022/01/12 17:45:12;;;;;;;13.77;3.27;;;;;;;14.36;nan;102161.59;4854598;29;20836;-91
2022/01/12 17:47:54;;;;;;;9.33;3.00;;;;;;;14.28;nan;102169.91;4894143;29;20597;-89
2022/01/12 17:58:27;;;;;;;6.97;3.00;;;;;;;13.89;nan;102174.63;4879919;29;20501;-89
2022/01/12 18:01:00;;;;;;;6.40;2.43;;;;;;;13.65;nan;102164.66;4851361;29;20463;-89
2022/01/12 19:19:18;;;;;;;6.43;3.50;;;;;;;11.36;nan;102203.06;4835313;29;20467;-91
2022/01/12 19:25:58;;;;;;;6.87;2.70;;;;;;;11.35;nan;102221.38;4787883;30;20536;-88
2022/01/12 19:28:50;;;;;;;6.43;2.50;;;;;;;11.31;nan;102227.38;4773565;30;20451;-90
2022/01/12 19:58:16;;;;;;;10.00;2.97;;;;;;;10.72;nan;102221.66;4707225;30;20636;-89
2022/01/12 20:01:39;;;;;;;17.73;3.07;;;;;;;10.81;nan;102241.72;4698027;30;21021;-88
2022/01/12 20:04:38;;;;;;;12.20;3.60;;;;;;;10.64;nan;102220.72;4717439;30;20487;-90
2022/01/12 20:15:51;;;;;;;24.53;6.60;;;;;;;10.60;nan;102239.31;4736960;30;20936;-92
2022/01/12 20:22:19;;;;;;;12.17;5.10;;;;;;;10.50;nan;102248.63;4835339;29;20463;-90
2022/01/12 20:40:18;;;;;;;11.30;5.80;;;;;;;10.19;nan;102246.28;4875471;29;20464;-91
2022/01/12 20:42:49;;;;;;;15.50;6.07;;;;;;;10.16;nan;102246.56;4862304;29;20483;-90
2022/01/12 20:45:47;;;;;;;10.17;5.30;;;;;;;10.17;nan;102258.34;4850844;29;20465;-90
2022/01/12 22:43:40;;;;;;;15.60;6.13;;;;;;;9.12;nan;102288.66;4897937;29;20467;-94
2022/01/12 22:46:32;;;;;;;15.97;5.50;;;;;;;9.11;nan;102292.38;4880309;29;20465;-93
2022/01/12 22:49:23;;;;;;;12.00;6.00;;;;;;;9.11;nan;102288.81;4896795;29;20468;-94
2022/01/12 22:51:56;;;;;;;15.00;5.80;;;;;;;9.10;nan;102304.31;4873400;29;20461;-95
2022/01/12 22:54:31;;;;;;;12.83;5.70;;;;;;;8.99;nan;102283.53;4883536;29;20455;-94
2022/01/12 22:57:05;;;;;;;12.60;5.90;;;;;;;8.99;nan;102288.97;4863250;29;20489;-94
2022/01/12 22:59:35;;;;;;;13.03;5.47;;;;;;;8.94;nan;102283.09;4881163;29;20879;-94
2022/01/12 23:02:24;;;;;;;21.50;7.40;;;;;;;9.10;nan;102307.03;4879537;29;20975;-96
2022/01/12 23:04:59;;;;;;;15.77;6.20;;;;;;;9.08;nan;102308.19;4878372;29;20454;-94
2022/01/12 23:07:53;;;;;;;12.47;5.80;;;;;;;9.00;nan;102290.69;4874514;29;20462;-94
2022/01/12 23:10:38;;;;;;;11.90;5.47;;;;;;;8.97;nan;102296.44;4817980;29;20480;-94